Time;durP1;ratioP1;P1;durP2;ratioP2;P2;SDS_P1;SDS_P2;PMS_P1;PMS_P2;Temp;Humidity;BMP_temperature;BMP_pressure;BME280_temperature;BME280_humidity;BME280_pressure;Samples;Min_cycle;Max_cycle;Signal;HPM_P1;HPM_P2
2022/12/18 00:00:57;;;;;;;9.63;5.70;;;;;;;-3.03;81.32;98978.47;5020633;28;20048;-65
2022/12/18 00:03:22;;;;;;;11.25;7.40;;;;;;;-2.99;81.14;98971.44;5014929;28;20037;-64
2022/12/18 00:05:52;;;;;;;7.82;5.60;;;;;;;-2.94;81.15;98972.16;4997466;28;20115;-64
2022/12/18 00:08:17;;;;;;;8.25;5.53;;;;;;;-2.96;81.41;98950.47;5015172;28;20068;-65
2022/12/18 00:10:43;;;;;;;7.38;5.20;;;;;;;-2.95;81.24;98965.25;5020702;28;20079;-66
2022/12/18 00:13:07;;;;;;;9.68;5.10;;;;;;;-2.92;81.58;98941.66;5017862;28;20433;-65
2022/12/18 00:15:36;;;;;;;10.50;6.00;;;;;;;-2.91;81.36;98953.81;4996654;28;20401;-65
2022/12/18 00:18:01;;;;;;;8.15;5.43;;;;;;;-2.91;81.29;98956.41;4998784;28;20050;-65
2022/12/18 00:20:25;;;;;;;10.65;6.07;;;;;;;-2.89;81.54;98944.19;5020014;28;20057;-65
2022/12/18 00:22:50;;;;;;;8.50;5.63;;;;;;;-2.92;81.48;98933.84;5015087;28;20043;-66
2022/12/18 00:25:15;;;;;;;10.30;5.63;;;;;;;-2.91;81.44;98940.75;5013124;28;20037;-65
2022/12/18 00:27:39;;;;;;;10.85;6.85;;;;;;;-2.93;81.29;98932.97;5014556;28;20506;-64
2022/12/18 00:30:05;;;;;;;10.10;6.03;;;;;;;-2.95;81.12;98923.50;4997405;28;20487;-68
2022/12/18 00:32:29;;;;;;;8.48;5.20;;;;;;;-2.89;81.99;98925.94;5035975;28;20383;-67
2022/12/18 00:34:54;;;;;;;8.95;4.90;;;;;;;-2.89;81.91;98928.53;5034427;28;20414;-67
2022/12/18 00:37:18;;;;;;;10.90;5.60;;;;;;;-2.88;82.12;98918.97;5018067;28;20740;-69
2022/12/18 00:39:43;;;;;;;7.25;5.30;;;;;;;-2.90;81.93;98923.38;5017224;28;20043;-65
2022/12/18 00:44:53;;;;;;;8.38;4.85;;;;;;;-2.94;81.93;98920.00;5017752;28;20040;-67
2022/12/18 00:47:18;;;;;;;10.52;5.72;;;;;;;-2.89;82.01;98915.50;5003272;28;20125;-67
2022/12/18 00:49:42;;;;;;;9.15;5.47;;;;;;;-2.92;81.92;98915.56;5001282;28;20490;-69
2022/12/18 00:52:07;;;;;;;7.93;5.28;;;;;;;-2.91;82.39;98906.84;5017917;28;20043;-66
2022/12/18 00:54:31;;;;;;;8.55;5.75;;;;;;;-2.92;82.36;98902.53;5035884;28;20052;-70
2022/12/18 00:56:56;;;;;;;8.30;4.40;;;;;;;-2.89;82.14;98889.41;5001679;28;20045;-69
2022/12/18 00:59:21;;;;;;;10.95;6.13;;;;;;;-2.94;82.49;98883.50;5035480;28;20040;-71
2022/12/18 01:01:46;;;;;;;7.30;5.03;;;;;;;-2.94;82.49;98878.28;5006039;28;20037;-74
2022/12/18 01:04:11;;;;;;;7.47;5.13;;;;;;;-2.94;82.50;98873.06;5016067;28;20036;-73
2022/12/18 01:06:36;;;;;;;8.88;4.88;;;;;;;-2.97;82.71;98875.75;5017939;28;20036;-74
2022/12/18 01:09:01;;;;;;;8.43;5.65;;;;;;;-2.99;82.67;98870.59;5000883;28;20384;-72
2022/12/18 01:11:25;;;;;;;8.15;4.88;;;;;;;-3.00;82.14;98868.03;5031803;28;20036;-76
2022/12/18 01:13:52;;;;;;;9.55;5.60;;;;;;;-3.00;82.29;98866.28;5018152;28;20125;-70
2022/12/18 01:16:17;;;;;;;9.60;6.43;;;;;;;-3.00;82.11;98855.84;5017787;28;20041;-72
2022/12/18 01:18:42;;;;;;;9.32;5.45;;;;;;;-3.02;82.24;98860.25;5017342;28;20105;-73
2022/12/18 01:21:14;;;;;;;9.30;5.45;;;;;;;-2.98;82.18;98856.66;4999557;28;20052;-69
2022/12/18 01:23:39;;;;;;;9.45;5.43;;;;;;;-3.01;82.41;98858.50;4980734;28;20522;-70
2022/12/18 01:26:06;;;;;;;10.10;5.53;;;;;;;-2.99;81.98;98859.31;4996579;28;20157;-67
2022/12/18 01:28:33;;;;;;;8.57;5.03;;;;;;;-2.98;82.37;98880.13;5006352;28;20124;-71
2022/12/18 01:31:08;;;;;;;9.00;5.32;;;;;;;-2.98;82.28;98877.50;5013277;28;20196;-72
2022/12/18 01:33:33;;;;;;;9.30;5.38;;;;;;;-2.98;82.05;98871.44;5014915;28;20037;-71
2022/12/18 01:35:57;;;;;;;9.75;5.88;;;;;;;-3.00;81.64;98870.63;4996615;28;20094;-71
2022/12/18 01:38:22;;;;;;;8.77;5.22;;;;;;;-2.98;81.59;98868.84;4993698;28;20047;-72
2022/12/18 01:40:47;;;;;;;8.88;5.88;;;;;;;-2.98;81.63;98864.47;5014258;28;20037;-70
2022/12/18 01:43:11;;;;;;;9.32;5.70;;;;;;;-2.99;81.22;98862.75;4996661;28;20048;-70
2022/12/18 01:45:36;;;;;;;8.38;5.50;;;;;;;-2.97;81.22;98862.72;4997222;28;20029;-71
2022/12/18 01:48:06;;;;;;;8.65;4.93;;;;;;;-2.94;80.72;98865.25;4994307;28;20049;-71
2022/12/18 01:50:39;;;;;;;9.05;4.80;;;;;;;-2.93;80.38;98873.00;5004378;28;20565;-68
2022/12/18 01:53:13;;;;;;;7.80;4.65;;;;;;;-2.92;80.42;98871.25;5012089;28;20068;-70
2022/12/18 01:55:49;;;;;;;9.07;5.07;;;;;;;-2.84;80.60;98866.69;4983745;28;20033;-71
2022/12/18 01:58:15;;;;;;;7.30;4.57;;;;;;;-2.86;80.72;98851.97;4996972;28;20051;-67
2022/12/18 02:00:40;;;;;;;9.07;5.40;;;;;;;-2.86;80.42;98863.25;5012797;28;20178;-64
2022/12/18 02:03:05;;;;;;;9.02;4.95;;;;;;;-2.83;80.18;98857.97;5011909;28;20095;-69
2022/12/18 02:05:44;;;;;;;9.82;5.45;;;;;;;-2.80;80.33;98863.06;5013992;28;20510;-69
2022/12/18 02:08:42;;;;;;;7.18;4.80;;;;;;;-2.83;79.38;98852.75;4997484;28;20045;-68
2022/12/18 02:11:17;;;;;;;7.18;4.65;;;;;;;-2.86;79.20;98852.81;4969512;28;20051;-69
2022/12/18 02:13:56;;;;;;;7.43;5.22;;;;;;;-2.88;79.19;98864.19;5002267;28;20060;-73
2022/12/18 02:16:43;;;;;;;8.25;5.43;;;;;;;-2.84;78.60;98864.06;5019226;28;20048;-73
2022/12/18 02:19:36;;;;;;;10.63;5.68;;;;;;;-2.85;77.86;98870.19;4986591;28;20048;-72
2022/12/18 02:22:27;;;;;;;9.93;5.82;;;;;;;-2.81;78.27;98877.00;5020062;28;20061;-74
2022/12/18 02:24:57;;;;;;;7.68;4.97;;;;;;;-2.83;78.40;98867.53;5011913;28;20056;-73
2022/12/18 02:27:22;;;;;;;10.15;5.15;;;;;;;-2.88;78.67;98867.66;5020205;28;20554;-70
2022/12/18 02:29:51;;;;;;;8.25;5.43;;;;;;;-2.86;78.88;98847.59;5048908;28;20101;-72
2022/12/18 02:32:22;;;;;;;8.73;6.15;;;;;;;-2.90;78.49;98856.41;5038077;28;20105;-75
2022/12/18 02:34:49;;;;;;;6.07;4.25;;;;;;;-2.93;78.35;98857.34;5041690;28;20040;-71
2022/12/18 02:37:17;;;;;;;7.55;5.18;;;;;;;-2.95;78.32;98860.94;5023190;28;20044;-68
2022/12/18 02:39:45;;;;;;;8.40;5.20;;;;;;;-2.95;78.51;98863.53;5042721;28;20105;-73
2022/12/18 02:42:12;;;;;;;10.20;6.03;;;;;;;-2.98;77.79;98864.47;5028465;28;20187;-73
2022/12/18 02:44:46;;;;;;;9.63;5.07;;;;;;;-2.95;78.06;98863.53;5028699;28;20542;-74
2022/12/18 02:47:16;;;;;;;9.35;4.88;;;;;;;-2.96;78.16;98872.25;5007135;28;20131;-73
2022/12/18 02:49:53;;;;;;;7.25;4.78;;;;;;;-2.95;78.31;98869.63;5040127;28;20040;-74
2022/12/18 02:52:43;;;;;;;7.47;4.05;;;;;;;-2.88;78.73;98866.81;5036465;28;20896;-72
2022/12/18 02:55:31;;;;;;;9.85;4.53;;;;;;;-2.91;79.00;98872.97;5019429;28;20089;-70
2022/12/18 02:58:10;;;;;;;6.35;4.10;;;;;;;-2.95;79.43;98858.31;5010548;28;20048;-73
2022/12/18 03:00:48;;;;;;;6.55;4.30;;;;;;;-2.99;78.48;98864.53;5022711;28;20083;-72
2022/12/18 03:03:24;;;;;;;6.45;4.47;;;;;;;-3.00;78.78;98855.84;5019475;28;20044;-71
2022/12/18 03:05:55;;;;;;;8.90;5.60;;;;;;;-2.99;79.47;98852.34;5036506;28;20411;-72
2022/12/18 03:08:27;;;;;;;6.03;4.18;;;;;;;-2.98;80.03;98854.03;5036546;28;20036;-71
2022/12/18 03:11:07;;;;;;;10.20;6.03;;;;;;;-3.03;79.90;98850.72;5035928;28;20044;-71
2022/12/18 03:13:58;;;;;;;6.03;4.45;;;;;;;-3.04;79.61;98861.19;5002763;28;20340;-72
2022/12/18 03:16:28;;;;;;;8.77;5.00;;;;;;;-3.14;78.65;98858.00;5014884;28;20044;-70
2022/12/18 03:19:02;;;;;;;7.50;4.90;;;;;;;-3.11;78.60;98851.84;5019493;28;20123;-68
2022/12/18 03:21:35;;;;;;;8.90;4.95;;;;;;;-3.16;77.98;98859.78;5028249;28;20061;-69
2022/12/18 03:24:06;;;;;;;9.43;5.53;;;;;;;-3.13;77.61;98879.69;5029681;28;20414;-71
2022/12/18 03:26:34;;;;;;;8.45;4.55;;;;;;;-3.13;78.07;98869.28;5035358;28;20040;-67
2022/12/18 03:29:07;;;;;;;8.20;5.18;;;;;;;-3.13;77.45;98866.66;5000987;28;20041;-67
2022/12/18 03:31:35;;;;;;;8.55;5.22;;;;;;;-3.13;78.70;98866.66;4995154;28;20039;-66
2022/12/18 03:34:06;;;;;;;9.27;5.47;;;;;;;-3.16;78.29;98865.00;5012129;28;20044;-66
2022/12/18 03:36:38;;;;;;;9.40;5.47;;;;;;;-3.17;77.23;98859.84;5015389;28;20044;-67
2022/12/18 03:39:03;;;;;;;11.10;6.03;;;;;;;-3.19;78.10;98857.28;5001933;28;20189;-67
2022/12/18 03:41:37;;;;;;;6.38;4.47;;;;;;;-3.17;78.22;98873.75;4998777;28;20048;-66
2022/12/18 03:44:38;;;;;;;8.57;5.00;;;;;;;-3.09;78.08;98855.25;5017431;28;20067;-67
2022/12/18 03:47:13;;;;;;;5.70;4.15;;;;;;;-3.13;78.19;98851.88;5000531;28;20043;-68
2022/12/18 03:50:08;;;;;;;7.85;4.82;;;;;;;-3.11;78.00;98860.50;4983334;28;20041;-68
2022/12/18 03:52:38;;;;;;;;;;;;;;;-3.01;79.10;98863.69;4998320;28;20044;-66
2022/12/18 03:55:07;;;;;;;9.05;4.72;;;;;;;-3.14;78.82;98875.38;5014298;28;20035;-66
2022/12/18 03:57:32;;;;;;;5.40;4.05;;;;;;;-3.18;78.94;98868.56;5034271;28;20040;-66
2022/12/18 04:00:10;;;;;;;6.35;4.40;;;;;;;-3.16;78.64;98858.97;5003388;28;20389;-65
2022/12/18 04:02:53;;;;;;;;;;;;;;;-3.07;79.30;98867.34;5017832;28;20127;-66
2022/12/18 04:05:26;;;;;;;6.05;4.00;;;;;;;-3.19;78.73;98859.88;5016770;28;19962;-66
2022/12/18 04:07:53;;;;;;;7.20;4.72;;;;;;;-3.22;78.56;98864.31;4997527;28;20043;-68
2022/12/18 04:10:20;;;;;;;7.97;5.05;;;;;;;-3.23;78.52;98883.47;5013714;28;20044;-68
2022/12/18 04:12:45;;;;;;;7.25;4.47;;;;;;;-3.22;78.43;98890.38;5034173;28;20040;-69
2022/12/18 04:15:13;;;;;;;8.23;4.38;;;;;;;-3.23;78.36;98913.00;5017099;28;20048;-69
2022/12/18 04:17:39;;;;;;;7.22;4.80;;;;;;;-3.25;77.38;98926.97;5017302;28;20044;-64
2022/12/18 04:20:04;;;;;;;7.55;3.88;;;;;;;-3.22;78.18;98903.44;5030995;28;20056;-63
2022/12/18 04:22:29;;;;;;;6.72;4.38;;;;;;;-3.21;78.69;98899.94;5037659;28;20513;-63
2022/12/18 04:24:57;;;;;;;9.40;4.72;;;;;;;-3.23;78.73;98907.78;5018049;28;20101;-63
2022/12/18 04:27:29;;;;;;;12.90;5.45;;;;;;;-3.20;79.09;98918.13;5014872;28;20029;-63
2022/12/18 04:29:57;;;;;;;7.05;4.93;;;;;;;-3.21;78.84;98924.25;5007808;28;20071;-63
2022/12/18 04:32:21;;;;;;;8.80;5.47;;;;;;;-3.14;79.73;98930.13;5036849;28;20083;-63
2022/12/18 04:34:47;;;;;;;9.35;4.70;;;;;;;-3.16;79.60;98926.72;5030185;28;20040;-61
2022/12/18 04:37:12;;;;;;;8.18;4.20;;;;;;;-3.21;79.55;98937.28;5001411;28;20139;-62
2022/12/18 04:39:37;;;;;;;8.48;5.15;;;;;;;-3.26;79.21;98940.88;5034322;28;20036;-62
2022/12/18 04:42:07;;;;;;;7.22;4.57;;;;;;;-3.23;78.93;98946.03;5017581;28;20056;-63
2022/12/18 04:44:32;;;;;;;8.43;5.15;;;;;;;-3.23;79.42;98946.03;5035454;28;20186;-62
2022/12/18 04:46:57;;;;;;;5.03;3.85;;;;;;;-3.24;79.09;98939.94;5035961;28;20189;-63
2022/12/18 04:49:22;;;;;;;6.22;4.25;;;;;;;-3.26;78.88;98956.53;5001368;28;20059;-61
2022/12/18 04:51:46;;;;;;;9.60;5.22;;;;;;;-3.18;79.40;98939.81;5037892;28;20399;-62
2022/12/18 04:54:11;;;;;;;6.93;4.82;;;;;;;-3.25;79.17;98937.38;5023302;28;20044;-63
2022/12/18 04:56:35;;;;;;;7.30;4.85;;;;;;;-3.27;78.15;98944.41;5036049;28;20048;-63
2022/12/18 04:59:00;;;;;;;7.03;4.35;;;;;;;-3.28;78.17;98945.31;5024601;28;20110;-62
2022/12/18 05:01:25;;;;;;;6.30;4.47;;;;;;;-3.31;77.51;98939.28;5043258;28;20047;-62
2022/12/18 05:03:51;;;;;;;5.82;4.15;;;;;;;-3.31;77.28;98949.69;5039873;28;20123;-63
2022/12/18 05:06:16;;;;;;;6.35;4.28;;;;;;;-3.32;77.67;98953.19;5010357;28;20064;-63
2022/12/18 05:08:40;;;;;;;6.70;4.53;;;;;;;-3.24;78.03;98965.16;5028543;28;20064;-61
2022/12/18 05:11:16;;;;;;;7.45;5.05;;;;;;;-3.24;78.05;98958.19;5017468;28;20059;-62
2022/12/18 05:13:41;;;;;;;7.18;4.63;;;;;;;-3.22;78.38;98955.56;5004994;28;20529;-62
2022/12/18 05:16:07;;;;;;;6.25;4.45;;;;;;;-3.27;78.18;98952.22;5033415;28;20043;-63
2022/12/18 05:18:31;;;;;;;7.35;4.70;;;;;;;-3.26;77.99;98951.31;5013907;28;20044;-63
2022/12/18 05:20:57;;;;;;;7.03;4.72;;;;;;;-3.30;77.28;98958.38;5031080;28;20056;-61
2022/12/18 05:23:23;;;;;;;8.90;5.55;;;;;;;-3.31;77.14;98975.75;5035091;28;20445;-63
2022/12/18 05:25:59;;;;;;;7.55;4.50;;;;;;;-3.25;77.33;98990.38;5034731;28;20089;-62
2022/12/18 05:28:25;;;;;;;6.28;4.13;;;;;;;-3.26;77.98;98988.66;5022562;28;20048;-61
2022/12/18 05:30:52;;;;;;;7.38;4.93;;;;;;;-3.27;77.59;99001.75;5017180;28;20551;-63
2022/12/18 05:33:18;;;;;;;5.78;4.43;;;;;;;-3.29;76.97;99009.59;5028216;28;20094;-63
2022/12/18 05:35:43;;;;;;;7.45;4.60;;;;;;;-3.32;76.98;99004.47;5005056;28;20051;-62
2022/12/18 05:38:07;;;;;;;7.18;4.85;;;;;;;-3.32;77.47;99007.94;5032006;28;20040;-62
2022/12/18 05:40:32;;;;;;;8.50;4.03;;;;;;;-3.31;77.15;99011.41;5034810;28;20041;-60
2022/12/18 05:42:56;;;;;;;6.00;4.03;;;;;;;-3.30;77.21;99013.97;5034500;28;20104;-61
2022/12/18 05:45:21;;;;;;;11.07;5.85;;;;;;;-3.25;77.76;99020.78;5033901;28;20124;-63
2022/12/18 05:47:46;;;;;;;5.47;3.58;;;;;;;-3.15;78.27;99019.66;5003850;28;20091;-62
2022/12/18 05:50:10;;;;;;;8.32;4.95;;;;;;;-3.26;78.25;99026.88;5034255;28;20048;-63
2022/12/18 05:52:35;;;;;;;6.13;4.30;;;;;;;-3.34;77.22;99027.09;5034193;28;20425;-62
2022/12/18 05:54:59;;;;;;;8.27;4.80;;;;;;;-3.32;77.21;99041.81;5034942;28;20380;-63
2022/12/18 05:57:24;;;;;;;8.32;4.50;;;;;;;-3.28;77.63;99036.53;5034692;28;20064;-63
2022/12/18 05:59:49;;;;;;;5.60;4.10;;;;;;;-3.31;77.00;99033.09;5008216;28;20064;-62
2022/12/18 06:02:13;;;;;;;9.65;5.32;;;;;;;-3.38;75.82;99036.75;5039950;28;20040;-63
2022/12/18 06:04:38;;;;;;;8.82;5.68;;;;;;;-3.37;75.25;99035.00;5004578;28;20097;-63
2022/12/18 06:07:02;;;;;;;8.50;5.50;;;;;;;-3.36;75.70;99047.97;5041910;28;20123;-63
2022/12/18 06:09:29;;;;;;;8.95;5.07;;;;;;;-3.32;75.44;99048.78;5042670;28;20131;-63
2022/12/18 06:11:53;;;;;;;9.10;5.20;;;;;;;-3.34;75.29;99059.22;5036399;28;20041;-63
2022/12/18 06:14:18;;;;;;;6.03;4.00;;;;;;;-3.31;76.11;99059.16;5035486;28;20041;-63
2022/12/18 06:16:43;;;;;;;9.13;5.22;;;;;;;-3.34;75.74;99063.59;5035701;28;20067;-62
2022/12/18 06:19:08;;;;;;;7.95;5.45;;;;;;;-3.36;74.99;99062.75;5003595;28;20055;-63
2022/12/18 06:21:33;;;;;;;6.88;4.30;;;;;;;-3.31;75.21;99069.59;5035824;28;20114;-63
2022/12/18 06:23:58;;;;;;;9.73;5.57;;;;;;;-3.31;75.65;99076.53;5005227;28;20052;-62
2022/12/18 06:26:23;;;;;;;7.78;5.03;;;;;;;-3.31;75.44;99072.19;5016187;28;20040;-62
2022/12/18 06:28:48;;;;;;;6.18;4.45;;;;;;;-3.32;74.35;99075.69;5018160;28;20047;-67
2022/12/18 06:31:13;;;;;;;9.27;5.47;;;;;;;-3.31;74.34;99085.22;5045171;28;20041;-68
2022/12/18 06:33:38;;;;;;;10.70;5.43;;;;;;;-3.27;74.06;99078.16;5042174;28;20047;-67
2022/12/18 06:36:13;;;;;;;9.88;5.18;;;;;;;-3.17;75.74;99105.75;5042387;28;20094;-68
2022/12/18 06:38:40;;;;;;;7.72;4.53;;;;;;;-3.20;75.80;99103.19;5042941;28;20036;-67
2022/12/18 06:41:14;;;;;;;6.53;4.50;;;;;;;-3.17;75.85;99116.16;5044053;28;20056;-67
2022/12/18 06:43:39;;;;;;;8.07;4.45;;;;;;;-3.07;77.38;99122.00;5043999;28;20043;-66
2022/12/18 06:46:04;;;;;;;6.68;4.28;;;;;;;-3.11;77.51;99126.44;5016441;28;20036;-69
2022/12/18 06:48:29;;;;;;;7.03;4.57;;;;;;;-3.16;76.55;99130.06;5032680;28;20135;-68
2022/12/18 06:50:54;;;;;;;10.23;4.78;;;;;;;-3.17;76.54;99138.78;5034123;28;20147;-67
2022/12/18 06:53:18;;;;;;;8.73;4.90;;;;;;;-3.17;75.49;99144.00;5034162;28;20049;-62
2022/12/18 06:55:43;;;;;;;7.63;5.18;;;;;;;-3.19;74.75;99145.78;5032636;28;20100;-62
2022/12/18 06:58:07;;;;;;;7.43;4.80;;;;;;;-3.23;73.78;99159.75;5019563;28;20071;-61
2022/12/18 07:00:32;;;;;;;6.10;4.80;;;;;;;-3.20;73.64;99149.25;5037541;28;20502;-62
2022/12/18 07:02:57;;;;;;;8.52;5.40;;;;;;;-3.19;72.69;99158.81;5037433;28;20129;-66
2022/12/18 07:05:21;;;;;;;8.40;5.32;;;;;;;-3.20;72.57;99152.72;5005996;28;20048;-63
2022/12/18 07:07:46;;;;;;;8.27;5.13;;;;;;;-3.17;72.06;99167.44;5036984;28;20067;-62
2022/12/18 07:10:11;;;;;;;8.30;4.85;;;;;;;-3.13;72.32;99163.84;5007807;28;20517;-61
2022/12/18 07:12:36;;;;;;;7.88;5.18;;;;;;;-3.11;72.75;99164.69;5016064;28;20040;-63
2022/12/18 07:15:00;;;;;;;7.40;4.97;;;;;;;-3.09;72.31;99168.13;5026596;28;20102;-63
2022/12/18 07:17:25;;;;;;;7.55;5.35;;;;;;;-3.08;72.59;99173.28;5018792;28;20075;-63
2022/12/18 07:19:50;;;;;;;5.95;4.05;;;;;;;-2.96;73.39;99177.34;5036005;28;20494;-62
2022/12/18 07:22:14;;;;;;;7.10;4.40;;;;;;;-3.00;73.90;99188.75;5037316;28;20055;-61
2022/12/18 07:24:39;;;;;;;10.95;4.93;;;;;;;-2.95;74.30;99192.13;5032451;28;20067;-62
2022/12/18 07:27:04;;;;;;;8.27;5.53;;;;;;;-2.99;75.01;99201.75;5027674;28;20076;-63
2022/12/18 07:29:29;;;;;;;8.82;4.45;;;;;;;-3.00;73.34;99210.47;5035744;28;20079;-63
2022/12/18 07:31:54;;;;;;;6.95;4.70;;;;;;;-2.98;74.76;99197.38;5027244;28;20032;-63
2022/12/18 07:34:19;;;;;;;7.22;4.88;;;;;;;-3.01;74.56;99203.53;5042715;28;20150;-64
2022/12/18 07:36:43;;;;;;;7.00;4.68;;;;;;;-3.05;72.98;99198.44;5018782;28;20087;-62
2022/12/18 07:39:10;;;;;;;10.50;5.95;;;;;;;-3.04;73.09;99200.13;5018960;28;20087;-62
2022/12/18 07:41:35;;;;;;;8.05;4.72;;;;;;;-3.02;73.18;99203.56;5037128;28;20063;-63
2022/12/18 07:44:10;;;;;;;7.95;4.97;;;;;;;-2.96;74.41;99201.69;5020047;28;20044;-63
2022/12/18 07:46:35;;;;;;;5.93;4.25;;;;;;;-2.95;75.35;99207.75;5013648;28;20538;-62
2022/12/18 07:49:00;;;;;;;10.38;5.40;;;;;;;-2.99;74.99;99209.56;5048545;28;20047;-62
2022/12/18 07:51:25;;;;;;;7.70;4.38;;;;;;;-3.01;75.08;99208.75;5037725;28;20050;-63
2022/12/18 07:53:49;;;;;;;8.00;5.20;;;;;;;-3.05;73.16;99206.28;5037990;28;20048;-62
2022/12/18 07:56:14;;;;;;;8.43;5.22;;;;;;;-3.05;71.95;99224.53;5036977;28;20044;-64
2022/12/18 07:58:39;;;;;;;12.77;5.72;;;;;;;-3.06;71.45;99220.19;5036484;28;20047;-63
2022/12/18 08:01:05;;;;;;;7.32;4.97;;;;;;;-3.02;72.11;99233.09;5036529;28;20051;-62
2022/12/18 08:03:31;;;;;;;7.72;4.63;;;;;;;-2.91;73.29;99225.03;5006072;28;20098;-63
2022/12/18 08:06:03;;;;;;;6.93;4.90;;;;;;;-2.83;74.41;99237.91;5034805;28;20060;-62
2022/12/18 08:08:29;;;;;;;7.88;5.18;;;;;;;-2.93;74.27;99245.91;5035374;28;20123;-63
2022/12/18 08:10:55;;;;;;;7.60;4.93;;;;;;;-2.97;72.16;99252.13;5015026;28;20037;-63
2022/12/18 08:13:19;;;;;;;6.38;4.30;;;;;;;-2.96;71.22;99263.41;5004633;28;20049;-63
2022/12/18 08:15:44;;;;;;;8.40;4.45;;;;;;;-2.97;70.87;99259.09;5031572;28;20048;-62
2022/12/18 08:18:09;;;;;;;8.70;4.75;;;;;;;-2.94;71.43;99285.09;4998941;28;20032;-63
2022/12/18 08:20:33;;;;;;;5.80;3.95;;;;;;;-2.94;70.07;99283.34;5028950;28;20049;-68
2022/12/18 08:22:58;;;;;;;8.57;4.80;;;;;;;-2.94;70.92;99288.56;4999245;28;20055;-68
2022/12/18 08:25:23;;;;;;;8.10;5.00;;;;;;;-2.94;69.87;99285.09;5008700;28;20045;-69
2022/12/18 08:27:48;;;;;;;9.60;5.20;;;;;;;-2.90;71.58;99291.94;5036043;28;20052;-68
2022/12/18 08:30:13;;;;;;;6.60;4.60;;;;;;;-2.89;71.10;99292.81;5014696;28;20040;-70
2022/12/18 08:32:38;;;;;;;7.47;4.80;;;;;;;-2.90;70.80;99288.47;5030270;28;20419;-69
2022/12/18 08:35:03;;;;;;;11.10;5.28;;;;;;;-2.89;69.73;99298.88;5034307;28;20386;-67
2022/12/18 08:37:28;;;;;;;7.40;4.30;;;;;;;-2.87;70.86;99299.72;5035773;28;20360;-67
2022/12/18 08:39:53;;;;;;;7.82;4.78;;;;;;;-2.83;71.22;99303.13;5035551;28;20048;-67
2022/12/18 08:45:01;;;;;;;7.57;4.68;;;;;;;-2.77;72.76;99303.81;5035847;28;20048;-67
2022/12/18 08:47:29;;;;;;;8.20;5.05;;;;;;;-2.76;72.16;99299.47;5036686;28;20040;-66
2022/12/18 08:49:54;;;;;;;7.32;4.57;;;;;;;-2.70;73.16;99292.34;5033802;28;20037;-69
2022/12/18 08:52:19;;;;;;;6.47;4.43;;;;;;;-2.64;74.14;99300.03;5035228;28;20126;-66
2022/12/18 08:54:43;;;;;;;6.75;4.68;;;;;;;-2.62;74.34;99300.84;4984926;28;20067;-67
2022/12/18 08:57:09;;;;;;;9.32;5.60;;;;;;;-2.61;73.46;99288.66;5000024;28;20040;-68
2022/12/18 08:59:34;;;;;;;6.00;3.80;;;;;;;-2.45;75.21;99294.34;5009964;28;20131;-70
2022/12/18 09:01:59;;;;;;;6.85;4.68;;;;;;;-2.50;74.72;99299.72;5011537;28;20489;-68
2022/12/18 09:04:24;;;;;;;7.00;4.50;;;;;;;-2.51;74.73;99305.81;5011372;28;20045;-67
2022/12/18 09:06:49;;;;;;;9.13;5.47;;;;;;;-2.52;74.49;99300.63;5027486;28;20093;-69
2022/12/18 09:09:14;;;;;;;6.55;4.78;;;;;;;-2.50;74.21;99304.06;5035469;28;20086;-68
2022/12/18 09:11:40;;;;;;;10.00;5.22;;;;;;;-2.50;73.78;99314.50;5035130;28;20127;-68
2022/12/18 09:14:05;;;;;;;5.32;4.10;;;;;;;-2.47;73.12;99324.84;5017234;28;20127;-68
2022/12/18 09:16:31;;;;;;;7.97;4.60;;;;;;;-2.42;74.31;99329.06;5033813;28;20041;-69
2022/12/18 09:18:59;;;;;;;10.07;5.20;;;;;;;-2.46;73.37;99340.47;5016730;28;20151;-68
2022/12/18 09:21:24;;;;;;;8.30;4.95;;;;;;;-2.49;72.64;99347.53;5013661;28;20110;-68
2022/12/18 09:23:51;;;;;;;8.35;4.60;;;;;;;-2.50;72.55;99362.34;4997305;28;20487;-67
2022/12/18 09:26:15;;;;;;;6.65;4.30;;;;;;;-2.49;73.36;99360.59;5031603;28;20074;-69
2022/12/18 09:28:41;;;;;;;5.93;3.80;;;;;;;-2.47;73.37;99350.94;5007123;28;20094;-68
2022/12/18 09:31:07;;;;;;;6.50;4.05;;;;;;;-2.50;72.09;99364.94;5030277;28;20048;-68
2022/12/18 09:33:34;;;;;;;7.70;4.32;;;;;;;-2.45;72.53;99364.81;5021214;28;20044;-69
2022/12/18 09:36:02;;;;;;;6.90;4.78;;;;;;;-2.41;73.78;99363.88;5002639;28;20064;-68
2022/12/18 09:38:27;;;;;;;7.05;4.15;;;;;;;-2.43;73.81;99373.47;5020787;28;20117;-70
2022/12/18 09:40:56;;;;;;;8.85;5.32;;;;;;;-2.41;74.14;99376.91;5034871;28;20620;-70
2022/12/18 09:43:27;;;;;;;8.65;4.75;;;;;;;-2.43;73.62;99378.69;5016696;28;20055;-68
2022/12/18 09:45:58;;;;;;;8.02;4.43;;;;;;;-2.42;73.01;99383.03;5034742;28;20574;-68
2022/12/18 09:48:27;;;;;;;8.13;4.38;;;;;;;-2.39;73.86;99381.22;5014391;28;20041;-69
2022/12/18 09:50:57;;;;;;;6.65;4.93;;;;;;;-2.34;74.45;99384.56;5000136;28;20043;-68
2022/12/18 09:53:27;;;;;;;6.63;4.20;;;;;;;-2.28;74.92;99379.22;5017011;28;20071;-69
2022/12/18 09:55:54;;;;;;;7.95;4.57;;;;;;;-2.29;75.65;99384.47;5016743;28;20173;-64
2022/12/18 09:58:28;;;;;;;6.28;3.83;;;;;;;-2.26;75.82;99384.41;5034718;28;20481;-63
2022/12/18 10:00:54;;;;;;;;;;;;;;;-2.09;76.36;99390.06;5035006;28;20158;-61
2022/12/18 10:03:19;;;;;;;6.25;3.97;;;;;;;-2.23;76.02;99386.91;5034485;28;19920;-63
2022/12/18 10:05:56;;;;;;;5.38;3.58;;;;;;;-2.13;76.58;99388.41;5033047;28;20040;-61
2022/12/18 10:08:23;;;;;;;6.97;4.70;;;;;;;-2.26;76.64;99385.22;5034514;28;20037;-61
2022/12/18 10:10:54;;;;;;;10.73;5.25;;;;;;;-2.30;76.75;99383.59;5016620;28;20155;-63
2022/12/18 10:13:39;;;;;;;6.13;4.00;;;;;;;-2.28;76.45;99405.31;5016878;28;20041;-62
2022/12/18 10:16:07;;;;;;;5.47;3.75;;;;;;;-2.39;76.01;99399.50;4998453;28;20064;-63
2022/12/18 10:18:50;;;;;;;6.75;4.03;;;;;;;-2.42;75.50;99398.69;5024939;28;20348;-62
2022/12/18 10:21:31;;;;;;;8.63;4.78;;;;;;;-2.33;75.69;99398.47;5016473;28;20057;-62
2022/12/18 10:24:28;;;;;;;7.00;4.28;;;;;;;-2.39;75.75;99396.88;5034461;28;20048;-65
2022/12/18 10:27:08;;;;;;;7.75;3.97;;;;;;;-2.25;75.92;99388.69;4965537;28;20057;-64
2022/12/18 10:29:33;;;;;;;8.32;4.32;;;;;;;-2.37;75.91;99405.50;4989200;28;20053;-62
2022/12/18 10:31:58;;;;;;;9.35;4.40;;;;;;;-2.35;75.77;99413.31;4978086;28;20149;-63
2022/12/18 10:34:23;;;;;;;7.43;4.00;;;;;;;-2.31;76.36;99409.75;4995771;28;20148;-64
2022/12/18 10:36:48;;;;;;;6.90;4.65;;;;;;;-2.29;76.86;99402.75;4996164;28;20180;-63
2022/12/18 10:39:16;;;;;;;5.43;3.80;;;;;;;-2.26;76.87;99403.50;4996329;28;20033;-64
2022/12/18 10:41:42;;;;;;;4.22;3.40;;;;;;;-2.29;77.02;99419.25;4979584;28;20559;-62
2022/12/18 10:44:14;;;;;;;6.75;4.38;;;;;;;-2.27;77.11;99420.09;4995877;28;20049;-62
2022/12/18 10:46:40;;;;;;;8.40;5.28;;;;;;;-2.30;77.60;99429.75;4979397;28;20143;-63
2022/12/18 10:49:17;;;;;;;6.07;4.28;;;;;;;-2.37;77.22;99436.00;4995902;28;20050;-62
2022/12/18 10:51:43;;;;;;;10.65;5.18;;;;;;;-2.41;76.70;99442.19;4963796;28;20106;-64
2022/12/18 10:54:21;;;;;;;5.82;3.88;;;;;;;-2.30;77.29;99442.78;4996439;28;20042;-63
2022/12/18 10:56:46;;;;;;;7.30;4.55;;;;;;;-2.41;76.93;99457.84;4997132;28;20096;-63
2022/12/18 10:59:14;;;;;;;5.85;3.85;;;;;;;-2.41;77.10;99460.44;4969751;28;20038;-63
2022/12/18 11:02:00;;;;;;;6.85;4.15;;;;;;;-2.35;77.31;99473.34;5000842;28;20053;-63
2022/12/18 11:04:25;;;;;;;;;;;;;;;-2.24;77.79;99473.97;5009088;28;20040;-62
2022/12/18 11:06:57;;;;;;;;;;;;;;;-2.22;77.82;99477.41;5037304;28;19923;-63
2022/12/18 11:09:28;;;;;;;8.02;4.05;;;;;;;-2.40;77.60;99483.06;5037439;28;19978;-63
2022/12/18 11:11:56;;;;;;;7.75;4.30;;;;;;;-2.50;76.96;99477.19;5016560;28;20044;-64
2022/12/18 11:14:32;;;;;;;6.63;4.25;;;;;;;-2.47;77.71;99476.22;5035114;28;20043;-66
2022/12/18 11:16:59;;;;;;;8.48;3.72;;;;;;;-2.43;77.90;99475.28;5037600;28;20131;-63
2022/12/18 11:19:37;;;;;;;6.47;4.15;;;;;;;-2.47;77.73;99471.00;5037163;28;20043;-60
2022/12/18 11:22:19;;;;;;;9.27;4.68;;;;;;;-2.46;77.50;99470.13;5006347;28;20057;-62
2022/12/18 11:24:54;;;;;;;5.75;4.28;;;;;;;-2.49;77.47;99480.66;5004434;28;20041;-62
2022/12/18 11:27:18;;;;;;;5.27;4.10;;;;;;;-2.52;77.92;99476.34;5014479;28;20044;-64
2022/12/18 11:29:43;;;;;;;8.88;4.95;;;;;;;-2.49;77.88;99484.13;5015831;28;20542;-63
2022/12/18 11:32:14;;;;;;;8.48;4.22;;;;;;;-2.51;77.70;99490.25;5012890;28;20051;-62
2022/12/18 11:34:43;;;;;;;7.82;5.18;;;;;;;-2.56;77.95;99490.34;4982180;28;20526;-64
2022/12/18 11:37:09;;;;;;;6.60;3.95;;;;;;;-2.56;77.82;99493.81;4997071;28;20098;-63
2022/12/18 11:39:52;;;;;;;5.97;4.00;;;;;;;-2.46;77.82;99498.81;4987972;28;20052;-63
2022/12/18 11:42:25;;;;;;;9.55;4.35;;;;;;;-2.51;77.86;99496.34;4999172;28;20403;-62
2022/12/18 11:44:54;;;;;;;6.50;3.85;;;;;;;-2.50;78.18;99500.66;4988749;28;20119;-63